Latest Weather Observations for Toowoomba

IDQ60801

Issued at 6:35 pm EST Saturday 1 November 2014 (issued every 30 minutes, with the page automatically refreshed every 10 minutes)

About weather observations | Map of weather stations | Latest weather observations for QLD | Other Formats
Station Details ID: 041529 Name: TOOWOOMBA AIRPORT Lat: -27.54 Lon: 151.91 Height: 640.9 m
Data from the previous 72 hours. | See also: Recent months at Toowoomba
Date/Time
EST
Temp
°C
App
Temp
°C
Dew
Point
Rel
Hum
%
Delta-T
°C
Wind Press
QNH
hPa
Press
MSL
hPa
Rain
since 9 am
mm
Dir
 
Spd
km/h
Gust
km/h
Spd
kts
Gust
kts
01/06:30pm 28.6 25.2 9.3 30 11.0 NNW 17 24 9 13 1012.0 - 0.0
01/06:00pm 29.0 25.2 9.2 29 11.3 NW 19 26 10 14 1012.0 1009.2 0.0
01/05:30pm 30.2 25.5 9.1 27 12.1 NW 24 35 13 19 1011.6 - 0.0
01/05:00pm 31.0 25.9 9.3 26 12.5 NW 26 39 14 21 1011.5 - 0.0
01/04:30pm 31.5 26.8 9.1 25 12.9 NNW 24 37 13 20 1011.5 - 0.0
01/04:00pm 32.2 27.1 9.1 24 13.4 NW 26 41 14 22 1011.6 - 0.0
01/03:30pm 32.3 26.5 7.9 22 13.9 NW 28 37 15 20 1011.6 - 0.0
01/03:00pm 32.3 27.6 7.9 22 13.9 NNW 22 32 12 17 1012.0 1009.2 0.0
01/02:30pm 30.9 25.5 8.0 24 12.9 N 26 35 14 19 1012.5 - 0.0
01/02:00pm 30.6 25.1 7.7 24 12.9 N 26 44 14 24 1012.9 - 0.0
01/01:30pm 31.3 26.8 10.1 27 12.4 N 24 46 13 25 1013.3 - 0.0
01/01:00pm 30.1 25.0 9.1 27 12.0 N 26 44 14 24 1014.0 - 0.0
01/12:30pm 29.5 25.3 11.1 32 10.9 N 24 39 13 21 1014.7 - 0.0
01/12:00pm 29.1 25.4 11.6 33 10.4 N 22 35 12 19 1015.5 1012.7 0.0
01/11:30am 28.7 25.8 12.2 36 9.9 N 19 28 10 15 1015.9 - 0.0
01/11:00am 27.4 23.9 12.2 39 9.0 N 22 30 12 16 1016.3 - 0.0
01/10:30am 24.6 22.5 13.5 50 6.7 NE 17 20 9 11 1016.7 - 0.0
01/10:00am 23.1 20.5 13.3 54 5.8 NE 19 26 10 14 1017.2 - 0.0
01/09:30am 21.5 19.3 13.2 59 4.9 NNE 17 22 9 12 1017.4 - 0.0
01/09:00am 22.3 21.2 14.4 61 4.8 NW 13 17 7 9 1019.0 1016.3 0.0
01/08:30am 21.1 19.8 13.8 63 4.3 WNW 13 20 7 11 1019.6 - 0.0
01/08:00am 19.9 18.0 14.3 70 3.3 W 17 26 9 14 1020.1 - 0.0
01/07:30am 19.7 17.0 14.5 72 3.1 W 22 26 12 14 1020.2 - 0.0
01/07:19am 19.3 19.1 14.8 75 2.7 WNW 9 15 5 8 1019.2 - 0.0
01/07:00am 19.1 16.7 14.4 74 2.8 NE 20 30 11 16 1017.1 - 0.0
01/06:30am 17.7 15.0 14.6 82 1.8 NE 22 30 12 16 1016.6 - 0.0
01/06:00am 17.3 15.6 14.6 84 1.6 NE 17 22 9 12 1016.5 1013.8 0.0
01/05:30am 17.3 15.6 14.6 84 1.6 NE 17 22 9 12 1016.6 - 0.0
01/05:00am 17.1 17.3 14.7 86 1.4 N 7 11 4 6 1017.3 - 0.0
01/04:30am 16.9 17.2 14.5 86 1.4 WNW 6 9 3 5 1017.5 - 0.0
01/04:00am 17.3 17.6 14.6 84 1.6 NNW 6 11 3 6 1017.2 - 0.0
01/03:30am 17.3 17.6 15.1 87 1.3 ENE 7 13 4 7 1016.7 - 0.0
01/03:00am 17.8 16.8 15.6 87 1.3 ENE 15 19 8 10 1016.4 1013.7 0.0
01/02:30am 18.1 17.1 15.5 85 1.6 ENE 15 19 8 10 1016.3 - 0.0
01/02:00am 18.1 17.6 15.9 87 1.3 E 13 17 7 9 1016.4 - 0.0
01/01:30am 18.2 18.1 16.0 87 1.3 NE 11 13 6 7 1017.0 - 0.0
01/01:00am 18.5 18.0 15.9 85 1.6 ENE 13 17 7 9 1017.1 - 0.0
01/12:30am 18.5 17.7 16.1 86 1.5 ENE 15 19 8 10 1017.0 - 0.0
01/12:00am 18.8 17.7 16.4 86 1.5 ENE 17 22 9 12 1017.3 1015.0 0.0
 
Date/Time
EST
Temp
°C
App
Temp
°C
Dew
Point
Rel
Hum
%
Delta-T
°C
Wind Press
QNH
hPa
Press
MSL
hPa
Rain
since 9 am
mm
Dir
 
Spd
km/h
Gust
km/h
Spd
kts
Gust
kts
31/11:30pm 19.1 18.0 16.3 84 1.7 ENE 17 22 9 12 1017.6 - 0.0
31/11:00pm 19.2 17.5 16.2 83 1.8 ENE 20 26 11 14 1017.5 - 0.0
31/10:30pm 19.7 17.7 16.5 82 2.0 E 22 28 12 15 1017.6 - 0.0
31/10:00pm 20.1 18.4 16.3 79 2.3 E 20 28 11 15 1017.8 - 0.0
31/09:30pm 20.8 18.4 16.4 76 2.7 ENE 24 32 13 17 1017.8 - 0.0
31/09:00pm 21.4 19.0 16.4 73 3.1 E 24 30 13 16 1017.7 1015.4 0.0
31/08:30pm 22.1 20.5 16.4 70 3.6 E 20 26 11 14 1017.4 - 0.0
31/08:00pm 23.6 21.4 16.9 66 4.2 ENE 24 32 13 17 1017.0 - 0.0
31/07:30pm 24.2 21.7 16.2 61 5.0 ENE 24 32 13 17 1017.0 - 0.0
31/07:00pm 25.3 23.3 15.6 55 6.0 ENE 20 28 11 15 1016.4 - 0.0
31/06:30pm 26.1 23.6 13.6 46 7.6 NE 19 32 10 17 1015.8 - 0.0
31/06:00pm 26.8 23.9 12.8 42 8.4 NE 20 28 11 15 1015.4 1013.0 0.0
31/05:30pm 27.6 24.6 12.4 39 9.1 NNE 20 28 11 15 1015.0 - 0.0
31/05:00pm 28.5 24.4 10.2 32 10.6 ENE 22 33 12 18 1014.8 - 0.0
31/04:30pm 29.6 25.7 10.7 31 11.1 NE 22 30 12 16 1014.6 - 0.0
31/04:00pm 29.8 26.4 11.3 32 11.0 ENE 20 24 11 13 1014.5 - 0.0
31/03:30pm 29.6 24.9 12.1 34 10.5 E 28 35 15 19 1014.6 - 0.0
31/03:00pm 30.5 26.3 11.0 30 11.5 ENE 24 32 13 17 1014.8 1012.5 0.0
31/02:30pm 30.3 26.7 11.8 32 11.1 E 22 32 12 17 1015.2 - 0.0
31/02:00pm 29.9 26.1 13.6 36 10.0 E 26 43 14 23 1015.7 - 0.0
31/01:30pm 29.3 26.6 14.7 41 9.1 E 22 39 12 21 1016.0 - 0.0
31/01:00pm 29.1 26.1 14.9 42 8.9 ENE 24 33 13 18 1016.6 - 0.0
31/12:30pm 29.4 27.2 15.9 44 8.6 E 22 32 12 17 1017.0 - 0.0
31/12:00pm 29.5 28.0 16.7 46 8.2 E 20 28 11 15 1017.6 1015.3 0.0
31/11:30am 28.3 27.3 16.6 49 7.5 E 17 28 9 15 1018.1 - 0.0
31/11:00am 26.9 25.6 15.9 51 6.9 ENE 17 24 9 13 1018.7 - 0.0
31/10:30am 25.9 25.0 15.9 54 6.3 ENE 15 24 8 13 1019.2 - 0.0
31/10:00am 25.1 24.4 16.3 58 5.5 E 15 22 8 12 1019.5 - 0.0
31/09:30am 24.5 23.5 16.7 61 4.9 ENE 17 22 9 12 1019.7 - 0.0
31/09:00am 23.5 22.5 16.5 65 4.4 ENE 17 24 9 13 1019.5 1017.2 0.0
31/08:30am 22.2 21.2 16.5 70 3.6 ENE 17 22 9 12 1019.5 - 0.0
31/08:00am 21.7 20.7 16.6 73 3.2 ENE 17 20 9 11 1019.6 - 0.0
31/07:30am 21.3 20.8 16.0 72 3.3 NNE 13 20 7 11 1019.9 - 0.0
31/07:11am 20.3 19.9 16.1 77 2.6 NNE 13 19 7 10 1019.8 - 0.0
31/07:00am 20.1 20.5 17.3 84 1.8 ENE 11 17 6 9 1019.8 - 0.0
31/06:30am 18.5 18.7 16.8 90 1.1 ENE 11 13 6 7 1019.7 - 0.0
31/06:00am 17.9 18.3 16.4 91 0.9 NE 9 15 5 8 1019.5 1017.2 0.0
31/05:30am 17.6 16.9 16.5 93 0.7 ENE 15 19 8 10 1019.0 - 0.0
31/05:00am 17.6 16.9 16.5 93 0.7 ENE 15 22 8 12 1018.5 - 0.0
31/04:30am 17.8 16.8 16.5 92 0.8 ENE 17 24 9 13 1018.2 - 0.0
31/04:00am 17.7 15.8 16.6 93 0.7 E 22 30 12 16 1017.7 - 0.0
31/03:30am 17.5 15.2 16.7 95 0.5 E 24 30 13 16 1017.4 - 0.0
31/03:10am 17.5 15.2 16.7 95 0.5 E 24 30 13 16 1017.2 - 0.0
31/03:00am 17.4 14.7 16.6 95 0.5 E 26 33 14 18 1017.1 1014.7 0.0
31/02:37am 17.4 14.3 16.6 95 0.5 E 28 33 15 18 1017.0 - 0.0
31/02:34am 17.4 14.7 16.6 95 0.5 E 26 33 14 18 1017.0 - 0.0
31/02:30am 17.4 14.7 16.6 95 0.5 E 26 32 14 17 1017.0 - 0.0
31/02:00am 17.4 14.3 16.6 95 0.5 E 28 32 15 17 1017.0 - 0.0
31/01:58am 17.4 14.7 16.6 95 0.5 E 26 32 14 17 1017.1 - 0.0
31/01:30am 17.6 14.5 16.6 94 0.6 E 28 33 15 18 1017.3 - 0.0
31/01:00am 17.7 16.7 16.6 93 0.7 ENE 17 22 9 12 1017.9 - 0.0
31/12:30am 17.6 15.7 16.6 94 0.6 E 22 28 12 15 1018.0 - 0.0
31/12:00am 17.6 16.0 16.6 94 0.6 E 20 24 11 13 1018.7 1016.4 0.0
 
Date/Time
EST
Temp
°C
App
Temp
°C
Dew
Point
Rel
Hum
%
Delta-T
°C
Wind Press
QNH
hPa
Press
MSL
hPa
Rain
since 9 am
mm
Dir
 
Spd
km/h
Gust
km/h
Spd
kts
Gust
kts
30/11:30pm 17.6 15.7 16.6 94 0.6 E 22 32 12 17 1018.4 - 0.0
30/11:00pm 17.6 14.5 16.5 93 0.7 E 28 35 15 19 1018.5 - 0.0
30/10:30pm 17.8 14.4 16.7 93 0.7 E 30 37 16 20 1018.8 - 0.0
30/10:13pm 17.9 14.4 16.6 92 0.8 E 30 37 16 20 1018.9 - 0.0
30/10:00pm 18.0 14.2 16.7 92 0.8 E 32 39 17 21 1018.8 - 0.0
30/09:30pm 18.3 15.2 16.5 89 1.1 E 28 37 15 20 1018.4 - 0.0
30/09:00pm 18.8 16.3 16.2 85 1.6 E 24 32 13 17 1018.2 1015.9 0.0
30/08:30pm 19.9 16.7 16.2 79 2.3 E 28 35 15 19 1017.8 - 0.0
30/08:00pm 20.7 16.7 16.1 75 2.8 E 32 41 17 22 1017.3 - 0.0
30/07:30pm 21.5 17.8 16.0 71 3.4 E 30 37 16 20 1017.0 - 0.0
30/07:00pm 22.7 19.3 15.8 65 4.3 E 28 35 15 19 1016.7 - 0.0
30/06:30pm 23.9 20.7 15.4 59 5.3 E 26 41 14 22 1016.2 - 0.0
30/06:00pm 25.6 21.8 13.5 47 7.3 E 26 37 14 20 1015.8 1013.4 0.0
30/05:30pm 27.2 23.8 11.2 36 9.4 E 20 26 11 14 1015.5 - 0.0
30/05:00pm 27.5 24.1 11.1 36 9.6 E 20 26 11 14 1015.4 - 0.0
30/04:30pm 27.6 25.1 11.2 36 9.6 E 15 24 8 13 1015.2 - 0.0
30/04:00pm 27.7 24.9 11.3 36 9.6 E 17 24 9 13 1015.2 - 0.0
30/03:30pm 27.9 25.5 11.5 36 9.7 ENE 15 20 8 11 1015.2 - 0.0
30/03:00pm 28.8 25.4 11.4 34 10.3 E 20 26 11 14 1015.5 1013.1 0.0
30/02:30pm 28.4 26.0 11.5 35 10.0 SE 15 22 8 12 1015.8 - 0.0
30/02:00pm 28.7 26.9 9.4 30 11.0 WSW 9 17 5 9 1016.1 - 0.0
30/01:30pm 28.5 25.5 9.2 30 11.0 N 15 22 8 12 1016.5 - 0.0
30/01:00pm 27.7 25.4 11.7 37 9.5 NE 15 20 8 11 1017.0 - 0.0
30/12:30pm 28.0 26.2 12.0 37 9.5 ENE 13 20 7 11 1017.5 - 0.0
30/12:00pm 27.7 26.5 12.9 40 8.9 E 11 19 6 10 1018.0 1015.7 0.0
30/11:30am 26.7 26.0 13.1 43 8.2 E 9 19 5 10 1018.7 - 0.0
30/11:00am 25.9 25.0 13.7 47 7.4 ESE 11 17 6 9 1019.3 - 0.0
30/10:30am 24.1 23.9 13.6 52 6.3 NE 7 17 4 9 1019.7 - 0.0
30/10:00am 23.3 22.4 13.8 55 5.7 ENE 11 19 6 10 1020.0 - 0.0
30/09:30am 22.4 20.4 14.0 59 5.0 ENE 17 24 9 13 1020.2 - 0.0
30/09:00am 21.5 18.9 13.7 61 4.6 ENE 20 24 11 13 1020.4 1018.1 0.0
30/08:30am 20.6 17.7 14.0 66 3.9 E 22 28 12 15 1020.4 - 0.0
30/08:00am 19.5 16.4 13.4 68 3.6 E 22 32 12 17 1020.6 - 0.0
30/07:30am 18.5 14.5 12.9 70 3.2 ENE 26 33 14 18 1020.4 - 0.0
30/07:00am 17.8 13.3 13.7 77 2.4 E 30 37 16 20 1020.2 - 0.0
30/06:30am 16.8 11.9 13.7 82 1.8 E 32 37 17 20 1019.8 - 0.0
30/06:00am 15.9 11.1 13.9 88 1.2 E 32 41 17 22 1019.5 1017.2 0.0
30/05:30am 15.4 11.3 13.9 91 0.9 E 28 39 15 21 1019.0 - 0.0
30/05:07am 15.5 10.7 14.0 91 0.9 E 32 39 17 21 1018.7 - 0.0
30/05:00am 15.5 10.7 14.0 91 0.9 E 32 39 17 21 1018.5 - 0.0
30/04:30am 15.8 11.1 14.3 91 0.9 E 32 43 17 23 1018.2 - 0.0
30/04:00am 15.8 10.6 14.5 92 0.8 E 35 43 19 23 1017.9 - 0.0
30/03:30am 15.8 11.1 14.3 91 0.9 E 32 44 17 24 1017.9 - 0.0
30/03:00am 15.9 10.7 14.6 92 0.8 E 35 46 19 25 1017.9 1015.6 0.0
30/02:30am 15.9 11.0 14.4 91 0.9 E 33 44 18 24 1018.0 - 0.0
30/02:00am 16.1 11.3 14.5 90 0.9 E 33 41 18 22 1018.2 - 0.0
30/01:30am 16.1 10.9 14.6 91 0.9 E 35 44 19 24 1018.1 - 0.0
30/01:00am 16.2 10.7 14.7 91 0.9 E 37 44 20 24 1018.2 - 0.0
30/12:30am 16.2 10.7 14.7 91 0.9 E 37 44 20 24 1018.3 - 0.0
30/12:18am 16.2 10.3 14.7 91 0.9 E 39 46 21 25 1018.3 - 0.0
30/12:00am 16.2 10.3 14.7 91 0.9 E 39 50 21 27 1018.7 1016.4 0.0
 
Date/Time
EST
Temp
°C
App
Temp
°C
Dew
Point
Rel
Hum
%
Delta-T
°C
Wind Press
QNH
hPa
Press
MSL
hPa
Rain
since 9 am
mm
Dir
 
Spd
km/h
Gust
km/h
Spd
kts
Gust
kts
29/11:30pm 16.2 10.2 14.4 89 1.1 E 39 46 21 25 1019.1 - 0.0
29/11:00pm 16.4 10.2 13.9 85 1.5 E 39 50 21 27 1019.1 - 0.0
29/10:30pm 16.6 10.3 13.5 82 1.8 E 39 52 21 28 1019.3 - 0.0
29/10:00pm 16.9 9.7 13.2 79 2.1 E 43 54 23 29 1019.0 - 0.0
29/09:30pm 17.3 11.0 13.6 79 2.2 E 39 50 21 27 1019.0 - 0.0
29/09:00pm 17.7 11.4 13.6 77 2.4 E 39 52 21 28 1018.9 1016.6 0.0
29/08:30pm 18.1 11.1 13.8 76 2.5 E 43 52 23 28 1018.7 - 0.0
29/08:00pm 18.9 12.2 12.2 65 3.8 E 39 50 21 27 1018.3 - 0.0
29/07:30pm 19.8 13.7 11.6 59 4.7 E 35 50 19 27 1018.0 - 0.0
29/07:00pm 21.0 14.9 11.9 56 5.2 E 35 46 19 25 1017.6 - 0.0

Other Formats:

Comma delimited format used in spreadsheet applications
http://www.bom.gov.au/fwo/IDQ60801/IDQ60801.95551.axf

JavaScript Object Notation format (JSON) in row-major order
http://www.bom.gov.au/fwo/IDQ60801/IDQ60801.95551.json